Time;durP1;ratioP1;P1;durP2;ratioP2;P2;SDS_P1;SDS_P2;PMS_P1;PMS_P2;Temp;Humidity;BMP_temperature;BMP_pressure;BME280_temperature;BME280_humidity;BME280_pressure;Samples;Min_cycle;Max_cycle;Signal;HPM_P1;HPM_P2
2023/01/15 00:00:15;;;;;;;6.40;2.37;;;;;;;;;;4936533;29;20908;-66
2023/01/15 00:02:41;;;;;;;0.40;0.40;;;;;;;;;;4936559;29;20958;-66
2023/01/15 00:05:07;;;;;;;0.60;0.60;;;;;;;;;;4936752;29;20431;-65
2023/01/15 00:07:33;;;;;;;0.40;0.40;;;;;;;;;;4935731;29;20490;-65
2023/01/15 00:09:59;;;;;;;0.40;0.40;;;;;;;;;;4936134;29;20963;-65
2023/01/15 00:12:25;;;;;;;0.40;0.40;;;;;;;;;;4935646;29;20483;-65
2023/01/15 00:14:51;;;;;;;0.30;0.30;;;;;;;;;;4935853;29;20428;-66
2023/01/15 00:17:17;;;;;;;0.77;0.33;;;;;;;;;;4935527;29;20448;-65
2023/01/15 00:19:43;;;;;;;2.43;0.40;;;;;;;;;;4936048;29;20511;-66
2023/01/15 00:22:09;;;;;;;0.30;0.30;;;;;;;;;;4936096;29;20586;-65
2023/01/15 00:27:38;;;;;;;0.30;0.30;;;;;;;;;;4936375;29;20919;-65
2023/01/15 00:30:04;;;;;;;0.30;0.30;;;;;;;;;;4935908;29;20464;-66
2023/01/15 00:32:30;;;;;;;0.40;0.40;;;;;;;;;;4935628;29;20798;-65
2023/01/15 00:35:00;;;;;;;0.40;0.40;;;;;;;;;;4935660;29;20885;-65
2023/01/15 00:37:26;;;;;;;0.30;0.30;;;;;;;;;;4935644;29;20919;-65
2023/01/15 00:39:52;;;;;;;0.30;0.30;;;;;;;;;;4936169;29;20510;-65
2023/01/15 00:42:18;;;;;;;0.30;0.30;;;;;;;;;;4936027;29;20825;-65
2023/01/15 00:44:45;;;;;;;0.30;0.30;;;;;;;;;;4935511;29;20765;-65
2023/01/15 00:47:13;;;;;;;1.13;0.30;;;;;;;;;;4935854;29;20510;-66
2023/01/15 00:49:40;;;;;;;0.37;0.37;;;;;;;;;;4935668;29;20563;-65
2023/01/15 00:52:06;;;;;;;0.80;0.40;;;;;;;;;;4935846;29;20452;-65
2023/01/15 00:54:32;;;;;;;0.30;0.30;;;;;;;;;;4935523;29;20836;-65
2023/01/15 00:56:58;;;;;;;0.93;0.30;;;;;;;;;;4935468;29;20435;-65
2023/01/15 00:59:24;;;;;;;0.40;0.40;;;;;;;;;;4935366;29;20787;-65
2023/01/15 01:01:50;;;;;;;0.67;0.40;;;;;;;;;;4935886;29;20422;-65
2023/01/15 01:04:16;;;;;;;0.30;0.30;;;;;;;;;;4935936;29;20769;-65
2023/01/15 01:06:42;;;;;;;0.30;0.30;;;;;;;;;;4935681;29;20471;-65
2023/01/15 01:09:12;;;;;;;2.33;0.30;;;;;;;;;;4935267;29;20475;-66
2023/01/15 01:11:38;;;;;;;0.30;0.30;;;;;;;;;;4935342;29;20453;-65
2023/01/15 01:14:04;;;;;;;0.40;0.40;;;;;;;;;;4935999;29;20795;-65
2023/01/15 01:16:37;;;;;;;0.30;0.30;;;;;;;;;;4935302;29;20424;-65
2023/01/15 01:19:08;;;;;;;0.30;0.30;;;;;;;;;;4935542;29;20404;-65
2023/01/15 01:21:34;;;;;;;0.70;0.40;;;;;;;;;;4935320;29;20474;-65
2023/01/15 01:24:00;;;;;;;0.30;0.30;;;;;;;;;;4935241;29;20511;-66
2023/01/15 01:26:29;;;;;;;0.97;0.20;;;;;;;;;;4935506;29;20420;-65
2023/01/15 01:28:56;;;;;;;0.27;0.27;;;;;;;;;;4938885;29;20467;-65
2023/01/15 01:31:22;;;;;;;1.23;0.30;;;;;;;;;;4938702;29;20424;-65
2023/01/15 01:36:52;;;;;;;0.30;0.30;;;;;;;;;;4939005;29;20483;-65
2023/01/15 01:39:18;;;;;;;0.33;0.33;;;;;;;;;;4938573;29;20916;-65
2023/01/15 01:41:45;;;;;;;0.30;0.30;;;;;;;;;;4938554;29;20414;-65
2023/01/15 01:44:29;;;;;;;0.30;0.30;;;;;;;;;;4938726;29;20478;-66
2023/01/15 01:46:55;;;;;;;0.30;0.30;;;;;;;;;;4938439;29;20432;-65
2023/01/15 01:49:22;;;;;;;0.30;0.30;;;;;;;;;;4938571;29;20459;-65
2023/01/15 01:51:53;;;;;;;0.20;0.20;;;;;;;;;;4938410;29;20432;-65
2023/01/15 01:54:20;;;;;;;0.27;0.27;;;;;;;;;;4938217;29;20808;-65
2023/01/15 01:56:49;;;;;;;0.30;0.30;;;;;;;;;;4938580;29;20991;-65
2023/01/15 01:59:15;;;;;;;0.40;0.40;;;;;;;;;;4938498;29;20420;-65
2023/01/15 02:01:41;;;;;;;0.30;0.30;;;;;;;;;;4938116;29;20510;-65
2023/01/15 02:04:08;;;;;;;0.30;0.30;;;;;;;;;;4936978;29;20508;-65
2023/01/15 02:06:35;;;;;;;0.30;0.30;;;;;;;;;;4938090;29;20259;-65
2023/01/15 02:09:01;;;;;;;0.30;0.30;;;;;;;;;;4937923;29;20459;-65
2023/01/15 02:11:28;;;;;;;0.40;0.40;;;;;;;;;;4938031;29;20849;-65
2023/01/15 02:13:57;;;;;;;0.30;0.30;;;;;;;;;;4937914;29;20420;-65
2023/01/15 02:16:23;;;;;;;0.30;0.30;;;;;;;;;;4938487;29;20435;-65
2023/01/15 02:18:52;;;;;;;0.30;0.30;;;;;;;;;;4938107;29;20424;-66
2023/01/15 02:21:24;;;;;;;0.30;0.30;;;;;;;;;;4937848;29;20428;-65
2023/01/15 02:24:13;;;;;;;0.30;0.30;;;;;;;;;;4938022;29;20420;-65
2023/01/15 02:27:01;;;;;;;0.33;0.33;;;;;;;;;;4932645;29;20920;-65
2023/01/15 02:29:34;;;;;;;2.00;0.30;;;;;;;;;;4937861;29;20578;-65
2023/01/15 02:32:02;;;;;;;0.30;0.30;;;;;;;;;;4937907;29;20781;-65
2023/01/15 02:34:30;;;;;;;0.30;0.30;;;;;;;;;;4937787;29;20439;-65
2023/01/15 02:37:00;;;;;;;0.33;0.27;;;;;;;;;;4921252;29;20515;-65
2023/01/15 02:39:27;;;;;;;0.30;0.30;;;;;;;;;;4936850;29;20439;-66
2023/01/15 02:41:55;;;;;;;0.30;0.30;;;;;;;;;;4937496;29;20432;-66
2023/01/15 02:44:23;;;;;;;0.40;0.40;;;;;;;;;;4937574;29;20502;-65
2023/01/15 02:46:49;;;;;;;0.30;0.30;;;;;;;;;;4937323;29;20438;-66
2023/01/15 02:49:17;;;;;;;0.30;0.30;;;;;;;;;;4937440;29;20546;-66
2023/01/15 02:51:50;;;;;;;0.30;0.30;;;;;;;;;;4920235;29;20515;-65
2023/01/15 02:54:17;;;;;;;0.40;0.40;;;;;;;;;;4937157;29;20412;-66
2023/01/15 02:56:44;;;;;;;0.20;0.20;;;;;;;;;;4937226;29;20464;-66
2023/01/15 02:59:11;;;;;;;0.30;0.30;;;;;;;;;;4937133;29;20471;-66
2023/01/15 03:01:42;;;;;;;0.30;0.30;;;;;;;;;;4937064;29;20818;-66
2023/01/15 03:04:20;;;;;;;0.30;0.30;;;;;;;;;;4937092;29;20404;-65
2023/01/15 03:06:50;;;;;;;0.30;0.30;;;;;;;;;;4937031;29;20483;-65
2023/01/15 03:09:16;;;;;;;0.30;0.30;;;;;;;;;;4937189;29;20503;-65
2023/01/15 03:11:46;;;;;;;0.30;0.30;;;;;;;;;;4937118;29;20912;-66
2023/01/15 03:14:18;;;;;;;0.77;0.57;;;;;;;;;;4936836;29;20416;-66
2023/01/15 03:16:50;;;;;;;0.30;0.30;;;;;;;;;;4937017;29;20519;-65
2023/01/15 03:19:27;;;;;;;0.20;0.20;;;;;;;;;;4936991;29;20420;-66
2023/01/15 03:22:02;;;;;;;0.30;0.30;;;;;;;;;;4936989;29;20486;-66
2023/01/15 03:24:42;;;;;;;0.30;0.30;;;;;;;;;;4936540;29;20423;-65
2023/01/15 03:27:08;;;;;;;0.83;0.30;;;;;;;;;;4936937;29;20404;-66
2023/01/15 03:29:37;;;;;;;0.30;0.30;;;;;;;;;;4919384;29;20618;-65
2023/01/15 03:32:03;;;;;;;0.30;0.30;;;;;;;;;;4936600;29;20946;-66
2023/01/15 03:34:42;;;;;;;0.30;0.30;;;;;;;;;;4936750;29;20463;-65
2023/01/15 03:37:08;;;;;;;0.30;0.30;;;;;;;;;;4936610;29;20456;-65
2023/01/15 03:39:34;;;;;;;0.67;0.30;;;;;;;;;;4936766;29;20424;-65
2023/01/15 03:42:09;;;;;;;0.20;0.20;;;;;;;;;;4936667;29;20447;-66
2023/01/15 03:44:54;;;;;;;0.30;0.30;;;;;;;;;;4936301;29;20946;-65
2023/01/15 03:47:29;;;;;;;7.67;0.43;;;;;;;;;;4936564;29;20420;-65
2023/01/15 03:49:59;;;;;;;6.23;0.50;;;;;;;;;;4936233;29;20474;-66
2023/01/15 03:52:43;;;;;;;0.30;0.30;;;;;;;;;;4935941;29;20428;-65
2023/01/15 03:55:29;;;;;;;0.23;0.23;;;;;;;;;;4936150;29;20912;-65
2023/01/15 03:58:01;;;;;;;0.27;0.27;;;;;;;;;;4936368;29;20420;-65
2023/01/15 04:00:38;;;;;;;0.50;0.50;;;;;;;;;;4936069;29;20490;-65
2023/01/15 04:03:06;;;;;;;0.87;0.30;;;;;;;;;;4936133;29;20408;-65
2023/01/15 04:05:33;;;;;;;0.60;0.43;;;;;;;;;;4935819;29;20428;-65
2023/01/15 04:07:59;;;;;;;1.10;0.40;;;;;;;;;;4936363;29;20463;-66
2023/01/15 04:10:25;;;;;;;0.30;0.30;;;;;;;;;;4918876;29;20487;-65
2023/01/15 04:12:51;;;;;;;0.40;0.40;;;;;;;;;;4935968;29;20428;-65
2023/01/15 04:15:18;;;;;;;0.30;0.30;;;;;;;;;;4936218;29;20424;-65
2023/01/15 04:17:43;;;;;;;0.40;0.40;;;;;;;;;;4935956;29;20460;-65
2023/01/15 04:20:10;;;;;;;0.30;0.30;;;;;;;;;;4935899;29;20438;-65
2023/01/15 04:22:36;;;;;;;0.30;0.30;;;;;;;;;;4935876;29;20420;-65
2023/01/15 04:25:04;;;;;;;0.50;0.30;;;;;;;;;;4935990;29;20435;-65
2023/01/15 04:27:30;;;;;;;0.30;0.30;;;;;;;;;;4935961;29;20412;-66
2023/01/15 04:29:56;;;;;;;0.30;0.30;;;;;;;;;;4936081;29;20475;-65
2023/01/15 04:32:22;;;;;;;0.97;0.40;;;;;;;;;;4935911;29;20423;-65
2023/01/15 04:34:49;;;;;;;0.47;0.47;;;;;;;;;;4936141;29;20428;-65
2023/01/15 04:37:16;;;;;;;0.30;0.30;;;;;;;;;;4935846;29;20519;-65
2023/01/15 04:39:42;;;;;;;0.30;0.30;;;;;;;;;;4936107;29;20507;-66
2023/01/15 04:44:56;;;;;;;0.30;0.30;;;;;;;;;;4935910;29;20476;-65
2023/01/15 04:47:22;;;;;;;3.30;0.43;;;;;;;;;;4935820;29;20506;-65
2023/01/15 04:49:48;;;;;;;2.63;0.30;;;;;;;;;;4935955;29;20498;-65
2023/01/15 04:52:14;;;;;;;0.57;0.40;;;;;;;;;;4936304;29;20412;-66
2023/01/15 04:54:40;;;;;;;0.40;0.40;;;;;;;;;;4935952;29;20426;-65
2023/01/15 04:57:06;;;;;;;0.40;0.40;;;;;;;;;;4935996;29;20513;-65
2023/01/15 04:59:32;;;;;;;0.30;0.30;;;;;;;;;;4935882;29;20519;-65
2023/01/15 05:01:58;;;;;;;0.30;0.30;;;;;;;;;;4936580;29;20456;-65
2023/01/15 05:04:25;;;;;;;1.60;0.30;;;;;;;;;;4939689;29;20924;-66
2023/01/15 05:06:52;;;;;;;1.53;0.40;;;;;;;;;;4939308;29;20947;-65
2023/01/15 05:09:18;;;;;;;0.40;0.40;;;;;;;;;;4939290;29;20455;-65
2023/01/15 05:11:44;;;;;;;2.27;0.30;;;;;;;;;;4939325;29;20482;-65
2023/01/15 05:14:10;;;;;;;0.30;0.30;;;;;;;;;;4939487;29;20791;-66
2023/01/15 05:16:37;;;;;;;0.30;0.30;;;;;;;;;;4939282;29;20539;-65
2023/01/15 05:19:06;;;;;;;0.30;0.30;;;;;;;;;;4939135;29;20522;-65
2023/01/15 05:21:34;;;;;;;0.30;0.30;;;;;;;;;;4939413;29;20440;-66
2023/01/15 05:24:01;;;;;;;0.30;0.30;;;;;;;;;;4939092;29;20427;-65
2023/01/15 05:26:27;;;;;;;0.30;0.30;;;;;;;;;;4939359;29;20430;-66
2023/01/15 05:28:54;;;;;;;0.30;0.30;;;;;;;;;;4939154;29;20459;-66
2023/01/15 05:31:20;;;;;;;0.30;0.30;;;;;;;;;;4939622;29;20499;-65
2023/01/15 05:33:47;;;;;;;0.30;0.30;;;;;;;;;;4939173;29;20440;-65
2023/01/15 05:36:14;;;;;;;0.30;0.30;;;;;;;;;;4938952;29;20424;-65
2023/01/15 05:38:41;;;;;;;0.30;0.30;;;;;;;;;;4938886;29;20420;-65
2023/01/15 05:43:52;;;;;;;0.50;0.50;;;;;;;;;;4939057;29;20492;-65
2023/01/15 05:46:18;;;;;;;1.33;0.30;;;;;;;;;;4938708;29;20423;-66
2023/01/15 05:48:44;;;;;;;0.40;0.40;;;;;;;;;;4938793;29;20427;-65
2023/01/15 05:51:10;;;;;;;0.30;0.30;;;;;;;;;;4938685;29;20908;-65
2023/01/15 05:53:36;;;;;;;0.30;0.30;;;;;;;;;;4938921;29;20420;-66
2023/01/15 05:56:02;;;;;;;0.30;0.30;;;;;;;;;;4938472;29;20518;-65
2023/01/15 05:58:28;;;;;;;0.47;0.47;;;;;;;;;;4938674;29;20920;-65
2023/01/15 06:00:54;;;;;;;0.30;0.30;;;;;;;;;;4938433;29;20420;-65
2023/01/15 06:03:24;;;;;;;0.40;0.40;;;;;;;;;;4938336;29;20904;-65
2023/01/15 06:05:54;;;;;;;0.40;0.40;;;;;;;;;;4938447;29;20551;-65
2023/01/15 06:08:20;;;;;;;0.40;0.40;;;;;;;;;;4938314;29;20503;-66
2023/01/15 06:10:46;;;;;;;0.50;0.40;;;;;;;;;;4938499;29;20479;-66
2023/01/15 06:13:13;;;;;;;0.30;0.30;;;;;;;;;;4937706;29;20412;-65
2023/01/15 06:15:39;;;;;;;0.40;0.40;;;;;;;;;;4937773;29;20427;-66
2023/01/15 06:18:05;;;;;;;0.30;0.30;;;;;;;;;;4938071;29;20427;-65
2023/01/15 06:20:31;;;;;;;0.30;0.30;;;;;;;;;;4938105;29;20431;-66
2023/01/15 06:22:57;;;;;;;0.50;0.30;;;;;;;;;;4938008;29;20424;-65
2023/01/15 06:25:23;;;;;;;0.33;0.33;;;;;;;;;;4937959;29;20416;-65
2023/01/15 06:27:48;;;;;;;0.30;0.30;;;;;;;;;;4937900;29;20420;-65
2023/01/15 06:30:15;;;;;;;0.30;0.30;;;;;;;;;;4938102;29;20971;-65
2023/01/15 06:32:41;;;;;;;0.30;0.30;;;;;;;;;;4937751;29;20830;-66
2023/01/15 06:35:07;;;;;;;0.30;0.30;;;;;;;;;;4938133;29;20486;-65
2023/01/15 06:37:33;;;;;;;0.37;0.30;;;;;;;;;;4938056;29;20424;-65
2023/01/15 06:39:59;;;;;;;0.30;0.30;;;;;;;;;;4937705;29;20584;-66
2023/01/15 06:47:55;;;;;;;0.30;0.30;;;;;;;;;;4937931;29;20956;-66
2023/01/15 06:50:22;;;;;;;0.30;0.30;;;;;;;;;;4937524;29;20474;-65
2023/01/15 06:52:47;;;;;;;0.30;0.30;;;;;;;;;;4937431;29;20420;-66
2023/01/15 06:55:13;;;;;;;0.20;0.20;;;;;;;;;;4920391;29;20451;-66
2023/01/15 06:57:40;;;;;;;0.20;0.20;;;;;;;;;;4937389;29;20471;-66
2023/01/15 07:00:07;;;;;;;0.20;0.20;;;;;;;;;;4937320;29;20435;-67
2023/01/15 07:02:33;;;;;;;0.20;0.20;;;;;;;;;;4937158;29;20914;-66
2023/01/15 07:04:59;;;;;;;0.80;0.40;;;;;;;;;;4937310;29;20428;-65
2023/01/15 07:07:28;;;;;;;0.40;0.40;;;;;;;;;;4936949;29;20486;-65
2023/01/15 07:09:54;;;;;;;0.20;0.20;;;;;;;;;;4937329;29;20487;-66
2023/01/15 07:12:20;;;;;;;0.30;0.30;;;;;;;;;;4937455;29;20422;-65
2023/01/15 07:14:46;;;;;;;0.30;0.30;;;;;;;;;;4937036;29;20483;-65
2023/01/15 07:17:12;;;;;;;0.30;0.30;;;;;;;;;;4937393;29;20447;-65
2023/01/15 07:19:38;;;;;;;0.30;0.30;;;;;;;;;;4936998;29;20451;-65
2023/01/15 07:22:04;;;;;;;0.30;0.30;;;;;;;;;;4937354;29;20415;-66
2023/01/15 07:24:30;;;;;;;1.23;0.50;;;;;;;;;;4936740;29;20421;-65
2023/01/15 07:26:56;;;;;;;0.30;0.30;;;;;;;;;;4937058;29;20427;-66
2023/01/15 07:29:22;;;;;;;0.30;0.30;;;;;;;;;;4936986;29;20469;-66
2023/01/15 07:31:48;;;;;;;0.60;0.30;;;;;;;;;;4936791;29;20422;-65
2023/01/15 07:34:14;;;;;;;0.30;0.30;;;;;;;;;;4936995;29;20432;-65
2023/01/15 07:36:41;;;;;;;0.30;0.30;;;;;;;;;;4936687;29;20565;-65
2023/01/15 07:39:07;;;;;;;0.30;0.30;;;;;;;;;;4936652;29;20464;-65
2023/01/15 07:49:48;;;;;;;0.30;0.30;;;;;;;;;;4937101;29;20478;-66
2023/01/15 07:52:15;;;;;;;0.60;0.60;;;;;;;;;;4936513;29;20412;-67
2023/01/15 07:54:41;;;;;;;0.60;0.60;;;;;;;;;;4919368;29;20428;-65
2023/01/15 07:57:07;;;;;;;1.87;1.87;;;;;;;;;;4936057;29;20439;-66
2023/01/15 07:59:33;;;;;;;0.43;0.43;;;;;;;;;;4936848;29;20431;-66
2023/01/15 08:01:59;;;;;;;0.40;0.40;;;;;;;;;;4936549;29;20416;-66
2023/01/15 08:04:25;;;;;;;0.67;0.67;;;;;;;;;;4936448;29;20967;-68
2023/01/15 08:06:51;;;;;;;0.50;0.50;;;;;;;;;;4936117;29;20464;-66
2023/01/15 08:09:17;;;;;;;0.60;0.60;;;;;;;;;;4917882;29;20463;-67
2023/01/15 08:17:12;;;;;;;1.10;1.00;;;;;;;;;;4936380;29;20452;-67
2023/01/15 08:19:37;;;;;;;1.20;1.10;;;;;;;;;;4936110;29;20424;-68
2023/01/15 08:22:03;;;;;;;0.57;0.57;;;;;;;;;;4936021;29;20427;-66
2023/01/15 08:24:29;;;;;;;0.40;0.40;;;;;;;;;;4935888;29;20428;-69
2023/01/15 08:26:55;;;;;;;0.40;0.40;;;;;;;;;;4918791;29;20431;-66
2023/01/15 08:29:21;;;;;;;0.30;0.30;;;;;;;;;;4936361;29;20471;-66
2023/01/15 08:31:47;;;;;;;0.20;0.20;;;;;;;;;;4936002;29;20435;-69
2023/01/15 08:34:14;;;;;;;2.50;0.30;;;;;;;;;;4935987;29;20416;-67
2023/01/15 08:36:40;;;;;;;0.43;0.43;;;;;;;;;;4937001;29;20478;-66
2023/01/15 08:39:06;;;;;;;0.43;0.43;;;;;;;;;;4941965;29;20419;-68
2023/01/15 08:41:32;;;;;;;0.60;0.60;;;;;;;;;;4942109;29;20514;-66
2023/01/15 08:43:58;;;;;;;0.40;0.40;;;;;;;;;;4942022;29;20502;-68
2023/01/15 08:46:24;;;;;;;1.00;1.00;;;;;;;;;;4942187;29;20416;-67
2023/01/15 08:48:52;;;;;;;0.77;0.77;;;;;;;;;;4942248;29;20480;-67
2023/01/15 08:51:18;;;;;;;1.60;1.50;;;;;;;;;;4942174;29;20434;-66
2023/01/15 08:56:48;;;;;;;0.50;0.50;;;;;;;;;;4942199;29;20394;-67
2023/01/15 08:59:14;;;;;;;1.27;0.60;;;;;;;;;;4942102;29;20416;-71
2023/01/15 09:01:41;;;;;;;0.57;0.57;;;;;;;;;;4941826;29;20412;-65
2023/01/15 09:04:07;;;;;;;0.80;0.80;;;;;;;;;;4941873;29;20941;-66
2023/01/15 09:06:33;;;;;;;0.30;0.30;;;;;;;;;;4941190;29;20498;-66
2023/01/15 09:09:02;;;;;;;0.30;0.30;;;;;;;;;;4941896;29;20431;-67
2023/01/15 09:11:28;;;;;;;0.30;0.30;;;;;;;;;;4924753;29;20580;-67
2023/01/15 09:13:54;;;;;;;0.77;0.77;;;;;;;;;;4942087;29;20540;-67
2023/01/15 09:16:20;;;;;;;0.73;0.70;;;;;;;;;;4941871;29;20467;-71
2023/01/15 09:18:46;;;;;;;0.30;0.30;;;;;;;;;;4942021;29;20423;-70
2023/01/15 09:21:12;;;;;;;0.30;0.30;;;;;;;;;;4942442;29;20427;-67
2023/01/15 09:23:38;;;;;;;0.40;0.40;;;;;;;;;;4941826;29;20483;-68
2023/01/15 09:26:05;;;;;;;0.80;0.80;;;;;;;;;;4942051;29;20860;-68
2023/01/15 09:28:32;;;;;;;0.80;0.80;;;;;;;;;;4941923;29;20850;-67
2023/01/15 09:30:58;;;;;;;0.60;0.60;;;;;;;;;;4941596;29;20477;-67
2023/01/15 09:33:24;;;;;;;0.50;0.50;;;;;;;;;;4941633;29;20420;-67
2023/01/15 09:35:50;;;;;;;1.93;1.93;;;;;;;;;;4941936;29;20475;-68
2023/01/15 09:38:18;;;;;;;1.90;1.83;;;;;;;;;;4941912;29;20415;-68
2023/01/15 09:40:47;;;;;;;3.93;3.73;;;;;;;;;;4941612;29;20487;-68
2023/01/15 09:43:32;;;;;;;31.30;18.80;;;;;;;;;;4941482;29;20419;-68
2023/01/15 09:46:05;;;;;;;12.40;9.70;;;;;;;;;;4924359;29;20499;-66
2023/01/15 09:48:50;;;;;;;18.27;13.80;;;;;;;;;;4940469;29;20408;-67
2023/01/15 09:51:55;;;;;;;2.30;2.30;;;;;;;;;;4938528;29;20431;-67
2023/01/15 09:54:37;;;;;;;6.57;5.97;;;;;;;;;;4937917;29;20436;-68
2023/01/15 09:57:03;;;;;;;1.00;1.00;;;;;;;;;;4938671;29;20960;-69
2023/01/15 09:59:35;;;;;;;2.63;2.53;;;;;;;;;;4938815;29;20416;-67
2023/01/15 10:02:03;;;;;;;1.10;1.10;;;;;;;;;;4921239;29;20527;-67
2023/01/15 10:04:39;;;;;;;1.23;1.23;;;;;;;;;;4938199;29;20415;-68
2023/01/15 10:07:17;;;;;;;0.50;0.50;;;;;;;;;;4938031;29;21027;-70
2023/01/15 10:09:44;;;;;;;0.50;0.50;;;;;;;;;;4938234;29;20559;-67
2023/01/15 10:12:34;;;;;;;0.77;0.77;;;;;;;;;;4938604;29;20490;-66
2023/01/15 10:15:06;;;;;;;0.70;0.70;;;;;;;;;;4938235;29;20760;-67
2023/01/15 10:17:40;;;;;;;0.53;0.53;;;;;;;;;;4938180;29;20420;-67
2023/01/15 10:20:06;;;;;;;2.30;2.20;;;;;;;;;;4938413;29;20410;-69
2023/01/15 10:22:48;;;;;;;0.77;0.77;;;;;;;;;;4937961;29;20420;-67
2023/01/15 10:25:19;;;;;;;1.10;1.00;;;;;;;;;;4938128;29;20900;-66
2023/01/15 10:27:47;;;;;;;1.37;1.27;;;;;;;;;;4937863;29;20471;-69
2023/01/15 10:30:22;;;;;;;1.67;1.67;;;;;;;;;;4937844;29;20479;-69
2023/01/15 10:33:02;;;;;;;0.40;0.40;;;;;;;;;;4937758;29;20426;-69
2023/01/15 10:35:34;;;;;;;1.67;1.67;;;;;;;;;;4938315;29;20404;-66
2023/01/15 10:38:16;;;;;;;13.20;11.90;;;;;;;;;;4937881;29;20427;-68
2023/01/15 10:40:42;;;;;;;0.80;0.80;;;;;;;;;;4937942;29;20476;-67
2023/01/15 10:46:32;;;;;;;0.60;0.60;;;;;;;;;;4937614;29;20910;-66
2023/01/15 10:49:03;;;;;;;0.50;0.50;;;;;;;;;;4936832;29;20452;-68
2023/01/15 10:51:45;;;;;;;5.80;5.03;;;;;;;;;;4937398;29;20432;-67
2023/01/15 10:54:17;;;;;;;10.50;7.10;;;;;;;;;;4937227;29;20412;-66
2023/01/15 10:56:47;;;;;;;31.27;15.17;;;;;;;;;;4937248;29;21000;-68
2023/01/15 10:59:16;;;;;;;34.40;16.97;;;;;;;;;;4937233;29;20430;-66
2023/01/15 11:01:42;;;;;;;10.70;6.90;;;;;;;;;;4936818;29;20456;-67
2023/01/15 11:04:11;;;;;;;13.77;8.27;;;;;;;;;;4937315;29;20469;-67
2023/01/15 11:06:37;;;;;;;20.17;15.77;;;;;;;;;;4936924;29;20476;-67
2023/01/15 11:09:04;;;;;;;1.97;1.97;;;;;;;;;;4936849;29;20834;-66
2023/01/15 11:20:30;;;;;;;4.23;4.03;;;;;;;;;;4936915;29;20794;-66
2023/01/15 11:22:57;;;;;;;23.07;15.90;;;;;;;;;;4937176;29;20430;-66
2023/01/15 11:25:30;;;;;;;3.70;3.60;;;;;;;;;;4936951;29;20448;-67
2023/01/15 11:27:57;;;;;;;10.50;8.37;;;;;;;;;;4937202;29;20536;-67
2023/01/15 11:30:25;;;;;;;3.63;3.33;;;;;;;;;;4936421;29;20486;-65
2023/01/15 11:32:54;;;;;;;3.40;3.10;;;;;;;;;;4936658;29;20448;-67
2023/01/15 11:35:20;;;;;;;6.83;4.80;;;;;;;;;;4936390;29;20436;-67
2023/01/15 11:37:46;;;;;;;5.23;4.80;;;;;;;;;;4936583;29;20416;-69
2023/01/15 11:40:20;;;;;;;4.30;4.03;;;;;;;;;;4936426;29;20424;-69
2023/01/15 11:51:06;;;;;;;10.43;7.63;;;;;;;;;;4936388;29;20470;-67
2023/01/15 11:53:34;;;;;;;18.63;12.30;;;;;;;;;;4936297;29;20420;-68
2023/01/15 11:56:03;;;;;;;20.60;11.93;;;;;;;;;;4936295;29;20427;-66
2023/01/15 11:58:34;;;;;;;1.57;1.47;;;;;;;;;;4936115;29;20436;-67
2023/01/15 12:01:00;;;;;;;3.37;3.13;;;;;;;;;;4936466;29;20446;-67
2023/01/15 12:03:30;;;;;;;1.17;1.17;;;;;;;;;;4936094;29;20799;-67
2023/01/15 12:06:04;;;;;;;0.90;0.87;;;;;;;;;;4935925;29;20467;-68
2023/01/15 12:08:52;;;;;;;0.83;0.83;;;;;;;;;;4936078;29;20396;-66
2023/01/15 12:11:21;;;;;;;0.90;0.67;;;;;;;;;;4935855;29;20471;-65
2023/01/15 12:13:47;;;;;;;0.60;0.60;;;;;;;;;;4935667;29;20503;-67
2023/01/15 12:16:24;;;;;;;0.90;0.90;;;;;;;;;;4936192;29;20516;-67
2023/01/15 12:18:53;;;;;;;0.60;0.60;;;;;;;;;;4936695;29;20448;-69
2023/01/15 12:21:22;;;;;;;0.63;0.63;;;;;;;;;;4935964;29;20433;-68
2023/01/15 12:26:58;;;;;;;4.17;3.80;;;;;;;;;;4936595;29;20448;-72
2023/01/15 12:29:27;;;;;;;4.97;4.37;;;;;;;;;;4935983;29;20467;-68
2023/01/15 12:32:00;;;;;;;3.60;2.67;;;;;;;;;;4935739;29;20487;-70
2023/01/15 12:34:30;;;;;;;5.87;3.33;;;;;;;;;;4935995;29;20396;-67
2023/01/15 12:37:15;;;;;;;15.23;10.43;;;;;;;;;;4936155;29;20428;-69
2023/01/15 12:39:48;;;;;;;1.60;1.50;;;;;;;;;;4935653;29;20842;-70
2023/01/15 12:45:04;;;;;;;1.17;1.17;;;;;;;;;;4936266;29;20810;-71
2023/01/15 12:47:37;;;;;;;1.47;1.47;;;;;;;;;;4935678;29;20428;-68
2023/01/15 12:50:18;;;;;;;1.30;1.30;;;;;;;;;;4935964;29;20478;-67
2023/01/15 12:52:45;;;;;;;2.83;1.20;;;;;;;;;;4935917;29;20435;-71
2023/01/15 12:55:14;;;;;;;2.30;2.30;;;;;;;;;;4935858;29;20428;-71
2023/01/15 12:57:46;;;;;;;1.20;1.20;;;;;;;;;;4936116;29;20479;-68
2023/01/15 13:00:24;;;;;;;1.20;1.20;;;;;;;;;;4935531;29;20466;-69
2023/01/15 13:02:53;;;;;;;1.20;1.10;;;;;;;;;;4935903;29;20447;-70
2023/01/15 13:05:21;;;;;;;0.80;0.80;;;;;;;;;;4935398;29;20420;-72
2023/01/15 13:07:52;;;;;;;1.07;1.07;;;;;;;;;;4935741;29;20532;-67
2023/01/15 13:10:19;;;;;;;0.70;0.70;;;;;;;;;;4935766;29;20471;-67
2023/01/15 13:12:45;;;;;;;0.80;0.80;;;;;;;;;;4918388;29;20511;-69
2023/01/15 13:15:13;;;;;;;4.33;1.10;;;;;;;;;;4935650;29;20463;-70
2023/01/15 13:18:14;;;;;;;8.13;2.43;;;;;;;;;;4935638;29;20427;-68
2023/01/15 13:20:43;;;;;;;1.17;1.10;;;;;;;;;;4896113;29;20524;-69
2023/01/15 13:23:29;;;;;;;1.40;1.30;;;;;;;;;;4929041;29;20420;-68
2023/01/15 13:26:18;;;;;;;1.90;1.20;;;;;;;;;;4919542;29;20475;-69
2023/01/15 13:28:50;;;;;;;1.07;1.07;;;;;;;;;;4939388;29;20443;-67
2023/01/15 13:31:42;;;;;;;2.70;2.60;;;;;;;;;;4938883;29;20530;-69
2023/01/15 13:34:21;;;;;;;2.67;1.40;;;;;;;;;;4936984;29;20518;-68
2023/01/15 13:36:48;;;;;;;1.00;1.00;;;;;;;;;;4939077;29;20396;-71
2023/01/15 13:39:18;;;;;;;1.30;1.30;;;;;;;;;;4938967;29;20443;-70
2023/01/15 13:44:34;;;;;;;0.90;0.90;;;;;;;;;;4939043;29;20411;-67
2023/01/15 13:47:11;;;;;;;1.63;1.53;;;;;;;;;;4938713;29;20923;-67
2023/01/15 13:49:39;;;;;;;1.17;1.00;;;;;;;;;;4939114;29;20518;-67
2023/01/15 13:52:07;;;;;;;1.03;0.93;;;;;;;;;;4939081;29;20432;-66
2023/01/15 13:54:35;;;;;;;1.77;1.20;;;;;;;;;;4938880;29;20411;-64
2023/01/15 13:57:09;;;;;;;1.00;0.80;;;;;;;;;;4938739;29;20424;-67
2023/01/15 13:59:35;;;;;;;3.40;0.80;;;;;;;;;;4938620;29;20439;-66
2023/01/15 14:02:00;;;;;;;2.50;2.00;;;;;;;;;;4938193;29;20932;-67
2023/01/15 14:04:36;;;;;;;1.03;1.03;;;;;;;;;;4938642;29;20423;-66
2023/01/15 14:07:02;;;;;;;0.87;0.67;;;;;;;;;;4937913;29;20520;-68
2023/01/15 14:09:30;;;;;;;9.97;1.20;;;;;;;;;;4938185;29;20459;-66
2023/01/15 14:12:15;;;;;;;2.63;1.07;;;;;;;;;;4938181;29;20428;-67
2023/01/15 14:14:59;;;;;;;2.43;2.30;;;;;;;;;;4937924;29;20416;-67
2023/01/15 14:17:37;;;;;;;0.87;0.87;;;;;;;;;;4937776;29;20979;-67
2023/01/15 14:20:22;;;;;;;0.80;0.80;;;;;;;;;;4938546;29;20523;-66
2023/01/15 14:22:54;;;;;;;0.70;0.70;;;;;;;;;;4938030;29;20488;-67
2023/01/15 14:25:27;;;;;;;1.20;0.80;;;;;;;;;;4937984;29;20932;-66
2023/01/15 14:27:53;;;;;;;1.50;0.50;;;;;;;;;;4937609;29;20467;-67
2023/01/15 14:30:38;;;;;;;5.10;1.10;;;;;;;;;;4937690;29;20867;-66
2023/01/15 14:33:27;;;;;;;0.70;0.70;;;;;;;;;;4937581;29;20412;-66
2023/01/15 14:35:53;;;;;;;1.97;0.80;;;;;;;;;;4931260;29;20460;-66
2023/01/15 14:38:21;;;;;;;1.50;1.50;;;;;;;;;;4938000;29;20430;-66
2023/01/15 14:41:00;;;;;;;0.70;0.70;;;;;;;;;;4937310;29;20471;-66
2023/01/15 14:43:28;;;;;;;2.00;0.50;;;;;;;;;;4937838;29;20857;-66
2023/01/15 14:45:54;;;;;;;2.00;1.10;;;;;;;;;;4937276;29;20447;-68
2023/01/15 14:48:29;;;;;;;0.93;0.43;;;;;;;;;;4937242;29;20899;-66
2023/01/15 14:51:15;;;;;;;0.60;0.60;;;;;;;;;;4937424;29;20475;-67
2023/01/15 14:53:43;;;;;;;0.43;0.43;;;;;;;;;;4937619;29;20408;-66
2023/01/15 14:56:16;;;;;;;0.70;0.70;;;;;;;;;;4937294;29;20420;-66
2023/01/15 14:58:56;;;;;;;1.50;1.50;;;;;;;;;;4937031;29;20459;-66
2023/01/15 15:01:32;;;;;;;5.10;2.20;;;;;;;;;;4920000;29;20440;-66
2023/01/15 15:04:00;;;;;;;1.40;0.80;;;;;;;;;;4937553;29;20489;-66
2023/01/15 15:06:27;;;;;;;2.63;1.13;;;;;;;;;;4916317;29;20555;-66
2023/01/15 15:08:56;;;;;;;2.20;0.80;;;;;;;;;;4917647;29;20901;-66
2023/01/15 15:14:15;;;;;;;0.60;0.60;;;;;;;;;;4907949;29;20480;-66
2023/01/15 15:16:46;;;;;;;0.63;0.63;;;;;;;;;;4918104;29;20416;-66
2023/01/15 15:19:51;;;;;;;2.00;0.87;;;;;;;;;;4917589;29;20943;-66
2023/01/15 15:22:19;;;;;;;0.50;0.50;;;;;;;;;;4934819;29;20955;-66
2023/01/15 15:24:47;;;;;;;1.10;1.10;;;;;;;;;;4934904;29;20928;-66
2023/01/15 15:27:23;;;;;;;3.13;1.27;;;;;;;;;;4926108;29;20749;-67
2023/01/15 15:29:49;;;;;;;0.83;0.83;;;;;;;;;;4918328;29;20471;-67
2023/01/15 15:32:17;;;;;;;0.52;0.52;;;;;;;;;;4917913;29;20422;-65
2023/01/15 15:34:47;;;;;;;0.80;0.80;;;;;;;;;;4917993;29;20185;-67
2023/01/15 15:37:17;;;;;;;0.73;0.73;;;;;;;;;;4918451;29;20445;-66
2023/01/15 15:39:55;;;;;;;0.40;0.40;;;;;;;;;;4917961;29;20405;-66
2023/01/15 15:50:59;;;;;;;0.70;0.70;;;;;;;;;;4917522;29;20990;-67
2023/01/15 15:53:25;;;;;;;1.23;0.60;;;;;;;;;;4917463;29;20761;-67
2023/01/15 15:55:52;;;;;;;0.60;0.60;;;;;;;;;;4917096;29;20893;-67
2023/01/15 15:58:30;;;;;;;2.27;0.80;;;;;;;;;;4917573;29;20428;-66
2023/01/15 16:00:57;;;;;;;1.13;0.60;;;;;;;;;;4916941;29;20887;-66
2023/01/15 16:03:24;;;;;;;0.70;0.70;;;;;;;;;;4916988;29;20424;-67
2023/01/15 16:06:00;;;;;;;1.70;0.50;;;;;;;;;;4917828;29;20850;-66
2023/01/15 16:08:28;;;;;;;1.00;1.00;;;;;;;;;;4936026;29;20392;-66
2023/01/15 16:10:55;;;;;;;1.33;1.33;;;;;;;;;;4936093;29;20637;-67